createdAt,value
2022-08-01T00:00:33.635Z,1011.93
2022-08-01T00:01:33.636Z,1011.97
2022-08-01T00:02:33.664Z,1012.01
2022-08-01T00:03:33.632Z,1011.99
2022-08-01T00:04:33.632Z,1011.96
2022-08-01T00:05:33.643Z,1011.96
2022-08-01T00:06:33.633Z,1011.93
2022-08-01T00:07:33.638Z,1011.97
2022-08-01T00:08:33.636Z,1011.95
2022-08-01T00:09:33.637Z,1011.96
2022-08-01T00:10:33.636Z,1011.96
2022-08-01T00:11:33.631Z,1012.00
2022-08-01T00:12:33.645Z,1011.99
2022-08-01T00:13:33.632Z,1012.00
2022-08-01T00:14:33.640Z,1011.99
2022-08-01T00:15:33.639Z,1011.98
2022-08-01T00:16:33.643Z,1012.01
2022-08-01T00:17:33.637Z,1011.97
2022-08-01T00:18:33.638Z,1011.98
2022-08-01T00:19:33.644Z,1011.99
2022-08-01T00:20:33.632Z,1011.99
2022-08-01T00:21:33.639Z,1011.98
2022-08-01T00:22:33.637Z,1011.98
2022-08-01T00:23:33.633Z,1011.97
2022-08-01T00:24:33.639Z,1011.99
2022-08-01T00:25:34.721Z,1011.97
2022-08-01T00:26:33.638Z,1012.00
2022-08-01T00:27:33.636Z,1012.00
2022-08-01T00:28:33.642Z,1012.00
2022-08-01T00:30:12.382Z,1011.99
2022-08-01T00:30:33.638Z,1011.99
2022-08-01T00:31:33.642Z,1011.96
2022-08-01T00:32:33.642Z,1011.96
2022-08-01T00:33:33.641Z,1011.97
2022-08-01T00:34:33.647Z,1011.98
2022-08-01T00:35:33.647Z,1011.97
2022-08-01T00:36:33.642Z,1011.98
2022-08-01T00:37:33.648Z,1011.92
2022-08-01T00:38:33.635Z,1012.03
2022-08-01T00:39:33.666Z,1011.93
2022-08-01T00:40:33.643Z,1011.97
2022-08-01T00:41:33.640Z,1011.95
2022-08-01T00:42:33.645Z,1011.93
2022-08-01T00:43:33.649Z,1011.96
2022-08-01T00:44:33.664Z,1011.95
2022-08-01T00:45:33.644Z,1012.03
2022-08-01T00:46:33.646Z,1012.00
2022-08-01T00:47:33.641Z,1011.99
2022-08-01T00:48:33.645Z,1012.03
2022-08-01T00:49:33.731Z,1011.98
2022-08-01T00:50:33.644Z,1012.01
2022-08-01T00:51:33.649Z,1011.98
2022-08-01T00:52:33.657Z,1012.00
2022-08-01T00:53:51.286Z,1012.04
2022-08-01T00:54:33.658Z,1012.04
2022-08-01T00:55:33.647Z,1012.12
2022-08-01T00:56:33.649Z,1012.05
2022-08-01T00:58:02.343Z,1012.05
2022-08-01T00:58:33.645Z,1012.07
2022-08-01T00:59:33.648Z,1012.06
2022-08-01T01:00:34.761Z,1012.04
2022-08-01T01:01:39.498Z,1012.06
2022-08-01T01:02:33.648Z,1012.06
2022-08-01T01:03:57.576Z,1012.05
2022-08-01T01:04:33.655Z,1012.08
2022-08-01T01:05:37.314Z,1012.11
2022-08-01T01:06:33.649Z,1012.07
2022-08-01T01:07:33.644Z,1012.09
2022-08-01T01:08:33.646Z,1012.11
2022-08-01T01:09:33.639Z,1012.05
2022-08-01T01:10:33.642Z,1012.08
2022-08-01T01:11:33.649Z,1012.12
2022-08-01T01:12:38.265Z,1012.08
2022-08-01T01:13:33.657Z,1012.03
2022-08-01T01:14:37.304Z,1012.09
2022-08-01T01:15:33.646Z,1012.09
2022-08-01T01:16:33.642Z,1012.07
2022-08-01T01:17:50.569Z,1012.11
2022-08-01T01:18:33.650Z,1012.09
2022-08-01T01:19:33.649Z,1012.10
2022-08-01T01:20:33.647Z,1012.07
2022-08-01T01:21:33.639Z,1012.11
2022-08-01T01:22:33.642Z,1012.10
2022-08-01T01:23:33.639Z,1012.13
2022-08-01T01:24:33.639Z,1012.06
2022-08-01T01:25:33.638Z,1012.08
2022-08-01T01:26:33.649Z,1012.12
2022-08-01T01:27:33.645Z,1012.11
2022-08-01T01:28:33.637Z,1012.09
2022-08-01T01:29:59.801Z,1012.15
2022-08-01T01:30:33.641Z,1012.16
2022-08-01T01:31:33.641Z,1012.12
2022-08-01T01:32:33.650Z,1012.10
2022-08-01T01:33:33.638Z,1012.11
2022-08-01T01:34:33.643Z,1012.13
2022-08-01T01:35:33.639Z,1012.11
2022-08-01T01:36:33.639Z,1012.10
2022-08-01T01:37:33.640Z,1012.14
2022-08-01T01:38:33.644Z,1012.14
2022-08-01T01:39:33.635Z,1012.14
2022-08-01T01:40:33.645Z,1012.17
2022-08-01T01:41:33.640Z,1012.12
2022-08-01T01:42:33.636Z,1012.17
2022-08-01T01:43:33.908Z,1012.14
2022-08-01T01:44:33.662Z,1012.19
2022-08-01T01:45:33.645Z,1012.17
2022-08-01T01:46:33.644Z,1012.18
2022-08-01T01:47:33.642Z,1012.19
2022-08-01T01:48:33.645Z,1012.20
2022-08-01T01:49:33.694Z,1012.17
2022-08-01T01:50:33.640Z,1012.17
2022-08-01T01:51:33.646Z,1012.16
2022-08-01T01:52:33.648Z,1012.15
2022-08-01T01:53:33.642Z,1012.15
2022-08-01T01:54:33.648Z,1012.17
2022-08-01T01:55:33.645Z,1012.18
2022-08-01T01:56:33.643Z,1012.19
2022-08-01T01:57:33.647Z,1012.18
2022-08-01T01:58:33.653Z,1012.19
2022-08-01T01:59:33.647Z,1012.21
2022-08-01T02:00:33.646Z,1012.19
2022-08-01T02:02:04.917Z,1012.23
2022-08-01T02:02:33.678Z,1012.18
2022-08-01T02:03:33.644Z,1012.19
2022-08-01T02:04:33.638Z,1012.15
2022-08-01T02:05:33.641Z,1012.19
2022-08-01T02:06:33.643Z,1012.13
2022-08-01T02:07:33.642Z,1012.14
2022-08-01T02:08:33.637Z,1012.12
2022-08-01T02:09:33.642Z,1012.12
2022-08-01T02:10:33.642Z,1012.11
2022-08-01T02:11:33.644Z,1012.07
2022-08-01T02:12:33.645Z,1012.12
2022-08-01T02:13:33.644Z,1012.04
2022-08-01T02:14:33.638Z,1012.09
2022-08-01T02:15:33.647Z,1012.09
2022-08-01T02:16:33.642Z,1012.10
2022-08-01T02:17:33.639Z,1012.06
2022-08-01T02:18:33.642Z,1012.03
2022-08-01T02:19:36.984Z,1012.07
2022-08-01T02:20:33.641Z,1012.06
2022-08-01T02:21:33.637Z,1012.03
2022-08-01T02:22:33.639Z,1012.03
2022-08-01T02:23:33.690Z,1012.01
2022-08-01T02:24:33.634Z,1012.01
2022-08-01T02:25:33.636Z,1011.97
2022-08-01T02:26:33.636Z,1011.96
2022-08-01T02:27:33.633Z,1011.93
2022-08-01T02:28:33.640Z,1012.00
2022-08-01T02:29:33.639Z,1012.00
2022-08-01T02:30:33.631Z,1012.00
2022-08-01T02:31:33.630Z,1012.03
2022-08-01T02:32:33.641Z,1012.01
2022-08-01T02:33:33.637Z,1012.03
2022-08-01T02:34:33.633Z,1011.98
2022-08-01T02:35:33.644Z,1011.99
2022-08-01T02:36:33.787Z,1011.97
2022-08-01T02:37:33.629Z,1012.01
2022-08-01T02:38:33.638Z,1012.04
2022-08-01T02:39:33.633Z,1011.99
2022-08-01T02:40:33.643Z,1012.00
2022-08-01T02:41:33.637Z,1011.99
2022-08-01T02:42:33.633Z,1011.98
2022-08-01T02:43:33.637Z,1011.97
2022-08-01T02:44:33.652Z,1011.95
2022-08-01T02:45:33.632Z,1011.94
2022-08-01T02:46:33.641Z,1011.93
2022-08-01T02:47:33.635Z,1011.90
2022-08-01T02:48:33.641Z,1011.92
2022-08-01T02:49:33.710Z,1011.88
2022-08-01T02:50:33.636Z,1011.91
2022-08-01T02:51:33.636Z,1011.93
2022-08-01T02:52:33.643Z,1011.95
2022-08-01T02:53:39.016Z,1011.97
2022-08-01T02:54:33.644Z,1011.97
2022-08-01T02:55:33.639Z,1011.97
2022-08-01T02:56:33.641Z,1011.96
2022-08-01T02:57:47.285Z,1012.01
2022-08-01T02:58:33.645Z,1011.96
2022-08-01T02:59:33.642Z,1011.92
2022-08-01T03:00:33.632Z,1012.01
2022-08-01T03:01:33.728Z,1011.97
2022-08-01T03:02:33.639Z,1011.98
2022-08-01T03:03:33.631Z,1011.92
2022-08-01T03:04:33.631Z,1011.92
2022-08-01T03:05:33.640Z,1011.96
2022-08-01T03:06:33.636Z,1011.97
2022-08-01T03:07:34.581Z,1011.94
2022-08-01T03:08:33.639Z,1011.99
2022-08-01T03:09:33.641Z,1012.00
2022-08-01T03:10:33.632Z,1012.02
2022-08-01T03:11:33.630Z,1012.01
2022-08-01T03:12:33.642Z,1011.99
2022-08-01T03:13:33.634Z,1012.00
2022-08-01T03:14:33.639Z,1012.03
2022-08-01T03:15:33.629Z,1012.06
2022-08-01T03:16:33.638Z,1012.03
2022-08-01T03:17:33.634Z,1012.04
2022-08-01T03:18:33.640Z,1012.01
2022-08-01T03:19:33.638Z,1012.00
2022-08-01T03:20:33.630Z,1012.04
2022-08-01T03:21:33.644Z,1012.03
2022-08-01T03:22:33.634Z,1012.01
2022-08-01T03:23:37.705Z,1012.01
2022-08-01T03:24:33.631Z,1012.01
2022-08-01T03:25:33.628Z,1012.04
2022-08-01T03:26:33.629Z,1011.99
2022-08-01T03:27:33.637Z,1012.02
2022-08-01T03:28:33.645Z,1012.04
2022-08-01T03:29:33.629Z,1012.01
2022-08-01T03:30:33.637Z,1012.03
2022-08-01T03:31:33.629Z,1012.04
2022-08-01T03:32:33.631Z,1011.99
2022-08-01T03:33:33.633Z,1012.03
2022-08-01T03:34:33.637Z,1012.08
2022-08-01T03:35:33.635Z,1012.04
2022-08-01T03:36:33.635Z,1012.03
2022-08-01T03:37:33.639Z,1012.03
2022-08-01T03:38:33.631Z,1012.05
2022-08-01T03:39:33.634Z,1012.07
2022-08-01T03:40:33.629Z,1012.06
2022-08-01T03:41:33.634Z,1012.03
2022-08-01T03:42:33.632Z,1012.03
2022-08-01T03:43:33.628Z,1012.02
2022-08-01T03:44:33.668Z,1012.01
2022-08-01T03:45:33.638Z,1012.04
2022-08-01T03:46:33.638Z,1012.08
2022-08-01T03:47:33.626Z,1012.00
2022-08-01T03:48:33.648Z,1012.08
2022-08-01T03:49:33.707Z,1012.04
2022-08-01T03:50:33.642Z,1012.04
2022-08-01T03:51:33.631Z,1012.06
2022-08-01T03:52:33.636Z,1012.04
2022-08-01T03:53:33.626Z,1012.06
2022-08-01T03:54:33.628Z,1012.07
2022-08-01T03:55:33.627Z,1012.05
2022-08-01T03:56:33.630Z,1012.09
2022-08-01T03:57:36.694Z,1012.10
2022-08-01T03:58:33.636Z,1012.07
2022-08-01T03:59:33.642Z,1012.09
2022-08-01T04:00:33.630Z,1012.08
2022-08-01T04:01:33.750Z,1012.07
2022-08-01T04:02:33.623Z,1012.12
2022-08-01T04:03:33.627Z,1012.08
2022-08-01T04:04:33.641Z,1012.12
2022-08-01T04:05:33.629Z,1012.12
2022-08-01T04:06:33.624Z,1012.12
2022-08-01T04:07:33.628Z,1012.14
2022-08-01T04:08:33.629Z,1012.10
2022-08-01T04:09:33.621Z,1012.08
2022-08-01T04:10:33.631Z,1012.08
2022-08-01T04:11:33.630Z,1012.08
2022-08-01T04:12:33.658Z,1012.10
2022-08-01T04:13:36.939Z,1012.07
2022-08-01T04:14:33.632Z,1012.08
2022-08-01T04:15:33.629Z,1012.04
2022-08-01T04:16:33.631Z,1012.06
2022-08-01T04:17:33.635Z,1012.05
2022-08-01T04:18:33.620Z,1012.03
2022-08-01T04:19:33.626Z,1012.05
2022-08-01T04:20:33.620Z,1012.07
2022-08-01T04:21:33.642Z,1012.09
2022-08-01T04:22:37.321Z,1012.11
2022-08-01T04:23:33.628Z,1012.07
2022-08-01T04:24:33.770Z,1012.10
2022-08-01T04:25:33.623Z,1012.11
2022-08-01T04:26:33.632Z,1012.10
2022-08-01T04:27:49.713Z,1012.13
2022-08-01T04:28:33.622Z,1012.15
2022-08-01T04:29:33.622Z,1012.15
2022-08-01T04:30:33.622Z,1012.17
2022-08-01T04:31:33.617Z,1012.20
2022-08-01T04:32:33.622Z,1012.19
2022-08-01T04:33:33.623Z,1012.21
2022-08-01T04:34:33.628Z,1012.23
2022-08-01T04:36:02.490Z,1012.23
2022-08-01T04:36:33.625Z,1012.22
2022-08-01T04:37:33.628Z,1012.27
2022-08-01T04:38:33.635Z,1012.26
2022-08-01T04:39:33.625Z,1012.27
2022-08-01T04:40:33.638Z,1012.31
2022-08-01T04:41:33.617Z,1012.30
2022-08-01T04:42:33.754Z,1012.27
2022-08-01T04:43:33.630Z,1012.26
2022-08-01T04:44:33.656Z,1012.25
2022-08-01T04:45:33.621Z,1012.31
2022-08-01T04:46:33.635Z,1012.31
2022-08-01T04:47:33.622Z,1012.34
2022-08-01T04:48:33.623Z,1012.33
2022-08-01T04:49:33.699Z,1012.34
2022-08-01T04:50:33.619Z,1012.35
2022-08-01T04:51:33.625Z,1012.34
2022-08-01T04:52:33.628Z,1012.37
2022-08-01T04:53:33.618Z,1012.40
2022-08-01T04:54:33.626Z,1012.45
2022-08-01T04:55:33.621Z,1012.44
2022-08-01T04:56:33.631Z,1012.47
2022-08-01T04:57:33.616Z,1012.47
2022-08-01T04:58:33.620Z,1012.47
2022-08-01T04:59:33.633Z,1012.49
2022-08-01T05:00:33.617Z,1012.46
2022-08-01T05:01:33.694Z,1012.50
2022-08-01T05:02:33.626Z,1012.47
2022-08-01T05:03:38.427Z,1012.47
2022-08-01T05:04:33.621Z,1012.51
2022-08-01T05:05:33.631Z,1012.49
2022-08-01T05:06:33.629Z,1012.47
2022-08-01T05:07:33.629Z,1012.47
2022-08-01T05:08:33.626Z,1012.48
2022-08-01T05:09:33.633Z,1012.52
2022-08-01T05:10:33.627Z,1012.53
2022-08-01T05:11:33.623Z,1012.55
2022-08-01T05:12:33.623Z,1012.46
2022-08-01T05:13:33.631Z,1012.48
2022-08-01T05:14:33.629Z,1012.51
2022-08-01T05:15:33.642Z,1012.52
2022-08-01T05:16:33.629Z,1012.52
2022-08-01T05:17:33.625Z,1012.51
2022-08-01T05:18:33.632Z,1012.52
2022-08-01T05:19:33.629Z,1012.48
2022-08-01T05:20:33.632Z,1012.52
2022-08-01T05:21:33.634Z,1012.52
2022-08-01T05:22:33.627Z,1012.54
2022-08-01T05:23:41.943Z,1012.52
2022-08-01T05:24:33.637Z,1012.55
2022-08-01T05:25:56.761Z,1012.54
2022-08-01T05:26:33.705Z,1012.57
2022-08-01T05:27:33.629Z,1012.57
2022-08-01T05:28:33.637Z,1012.61
2022-08-01T05:29:33.630Z,1012.56
2022-08-01T05:30:33.640Z,1012.57
2022-08-01T05:31:33.635Z,1012.61
2022-08-01T05:32:33.632Z,1012.58
2022-08-01T05:33:33.641Z,1012.58
2022-08-01T05:34:33.639Z,1012.61
2022-08-01T05:35:47.555Z,1012.59
2022-08-01T05:36:33.637Z,1012.59
2022-08-01T05:37:33.643Z,1012.63
2022-08-01T05:38:33.639Z,1012.65
2022-08-01T05:39:33.657Z,1012.65
2022-08-01T05:40:33.638Z,1012.67
2022-08-01T05:41:33.646Z,1012.67
2022-08-01T05:42:33.657Z,1012.67
2022-08-01T05:43:33.640Z,1012.70
2022-08-01T05:44:33.662Z,1012.71
2022-08-01T05:45:33.646Z,1012.68
2022-08-01T05:46:33.641Z,1012.66
2022-08-01T05:47:33.650Z,1012.69
2022-08-01T05:48:33.655Z,1012.69
2022-08-01T05:49:33.705Z,1012.64
2022-08-01T05:50:33.649Z,1012.64
2022-08-01T05:51:33.654Z,1012.64
2022-08-01T05:52:33.643Z,1012.72
2022-08-01T05:53:33.650Z,1012.74
2022-08-01T05:54:33.648Z,1012.74
2022-08-01T05:55:33.651Z,1012.77
2022-08-01T05:56:33.652Z,1012.79
2022-08-01T05:57:33.644Z,1012.74
2022-08-01T05:58:33.650Z,1012.78
2022-08-01T05:59:33.649Z,1012.79
2022-08-01T06:00:33.651Z,1012.80
2022-08-01T06:01:33.648Z,1012.77
2022-08-01T06:02:33.742Z,1012.79
2022-08-01T06:03:33.642Z,1012.78
2022-08-01T06:04:33.651Z,1012.78
2022-08-01T06:05:33.656Z,1012.74
2022-08-01T06:06:33.644Z,1012.76
2022-08-01T06:07:33.650Z,1012.66
2022-08-01T06:08:33.647Z,1012.68
2022-08-01T06:09:33.640Z,1012.68
2022-08-01T06:10:33.650Z,1012.70
2022-08-01T06:11:33.641Z,1012.72
2022-08-01T06:12:35.603Z,1012.67
2022-08-01T06:13:33.647Z,1012.74
2022-08-01T06:14:33.647Z,1012.71
2022-08-01T06:15:33.641Z,1012.72
2022-08-01T06:16:33.642Z,1012.71
2022-08-01T06:17:33.631Z,1012.71
2022-08-01T06:18:33.635Z,1012.67
2022-08-01T06:19:33.638Z,1012.70
2022-08-01T06:20:33.641Z,1012.68
2022-08-01T06:21:33.637Z,1012.72
2022-08-01T06:22:33.633Z,1012.75
2022-08-01T06:23:33.629Z,1012.75
2022-08-01T06:24:33.630Z,1012.77
2022-08-01T06:25:33.629Z,1012.78
2022-08-01T06:26:33.636Z,1012.76
2022-08-01T06:27:33.625Z,1012.72
2022-08-01T06:28:33.642Z,1012.76
2022-08-01T06:29:33.629Z,1012.76
2022-08-01T06:30:33.630Z,1012.80
2022-08-01T06:31:34.172Z,1012.72
2022-08-01T06:32:33.620Z,1012.72
2022-08-01T06:33:33.619Z,1012.73
2022-08-01T06:34:33.629Z,1012.74
2022-08-01T06:35:33.628Z,1012.70
2022-08-01T06:36:33.618Z,1012.72
2022-08-01T06:37:33.618Z,1012.72
2022-08-01T06:38:33.626Z,1012.75
2022-08-01T06:39:33.618Z,1012.74
2022-08-01T06:40:33.614Z,1012.74
2022-08-01T06:41:33.612Z,1012.78
2022-08-01T06:42:33.617Z,1012.80
2022-08-01T06:43:33.618Z,1012.77
2022-08-01T06:44:33.645Z,1012.74
2022-08-01T06:45:33.610Z,1012.78
2022-08-01T06:46:33.607Z,1012.79
2022-08-01T06:47:33.618Z,1012.76
2022-08-01T06:48:33.617Z,1012.75
2022-08-01T06:49:33.672Z,1012.73
2022-08-01T06:50:33.609Z,1012.71
2022-08-01T06:51:33.612Z,1012.73
2022-08-01T06:52:33.607Z,1012.74
2022-08-01T06:53:36.558Z,1012.77
2022-08-01T06:54:33.605Z,1012.78
2022-08-01T06:55:33.605Z,1012.82
2022-08-01T06:56:33.597Z,1012.79
2022-08-01T06:57:33.602Z,1012.79
2022-08-01T06:58:33.598Z,1012.80
2022-08-01T06:59:33.601Z,1012.78
2022-08-01T07:00:33.648Z,1012.79
2022-08-01T07:01:34.333Z,1012.76
2022-08-01T07:02:33.604Z,1012.80
2022-08-01T07:03:53.879Z,1012.80
2022-08-01T07:04:33.595Z,1012.79
2022-08-01T07:05:33.598Z,1012.81
2022-08-01T07:06:33.595Z,1012.77
2022-08-01T07:07:33.589Z,1012.81
2022-08-01T07:08:33.599Z,1012.80
2022-08-01T07:09:33.596Z,1012.80
2022-08-01T07:10:33.598Z,1012.78
2022-08-01T07:11:33.582Z,1012.81
2022-08-01T07:12:33.592Z,1012.81
2022-08-01T07:13:36.758Z,1012.80
2022-08-01T07:14:33.581Z,1012.83
2022-08-01T07:15:33.587Z,1012.80
2022-08-01T07:16:33.578Z,1012.79
2022-08-01T07:17:33.588Z,1012.79
2022-08-01T07:18:33.586Z,1012.84
2022-08-01T07:19:33.581Z,1012.83
2022-08-01T07:20:38.003Z,1012.82
2022-08-01T07:21:40.708Z,1012.86
2022-08-01T07:22:33.574Z,1012.81
2022-08-01T07:23:36.664Z,1012.83
2022-08-01T07:24:33.573Z,1012.82
2022-08-01T07:25:33.575Z,1012.86
2022-08-01T07:26:33.578Z,1012.86
2022-08-01T07:27:33.578Z,1012.85
2022-08-01T07:28:33.576Z,1012.83
2022-08-01T07:29:33.577Z,1012.84
2022-08-01T07:30:33.573Z,1012.82
2022-08-01T07:31:33.577Z,1012.80
2022-08-01T07:32:33.570Z,1012.78
2022-08-01T07:33:48.407Z,1012.79
2022-08-01T07:34:33.562Z,1012.78
2022-08-01T07:35:33.563Z,1012.82
2022-08-01T07:36:33.562Z,1012.84
2022-08-01T07:37:48.126Z,1012.84
2022-08-01T07:38:33.565Z,1012.87
2022-08-01T07:39:33.560Z,1012.86
2022-08-01T07:40:33.563Z,1012.93
2022-08-01T07:41:53.593Z,1012.89
2022-08-01T07:42:33.552Z,1012.90
2022-08-01T07:43:33.563Z,1012.91
2022-08-01T07:44:33.565Z,1012.94
2022-08-01T07:45:33.558Z,1012.92
2022-08-01T07:46:33.556Z,1012.96
2022-08-01T07:47:33.557Z,1012.98
2022-08-01T07:48:33.555Z,1012.99
2022-08-01T07:49:39.118Z,1013.01
2022-08-01T07:50:34.174Z,1013.03
2022-08-01T07:51:33.552Z,1013.04
2022-08-01T07:52:33.546Z,1013.05
2022-08-01T07:53:33.549Z,1013.02
2022-08-01T07:54:34.663Z,1013.01
2022-08-01T07:55:33.541Z,1013.03
2022-08-01T07:56:33.547Z,1013.01
2022-08-01T07:57:33.548Z,1012.99
2022-08-01T07:58:33.541Z,1012.98
2022-08-01T07:59:33.548Z,1012.99
2022-08-01T08:00:33.541Z,1012.98
2022-08-01T08:01:33.676Z,1012.96
2022-08-01T08:02:33.544Z,1012.96
2022-08-01T08:03:33.540Z,1012.98
2022-08-01T08:04:33.545Z,1012.94
2022-08-01T08:05:57.981Z,1012.93
2022-08-01T08:06:33.532Z,1012.94
2022-08-01T08:07:33.564Z,1012.94
2022-08-01T08:08:33.529Z,1012.95
2022-08-01T08:09:37.341Z,1012.91
2022-08-01T08:10:33.536Z,1012.91
2022-08-01T08:11:33.534Z,1012.91
2022-08-01T08:12:33.528Z,1012.91
2022-08-01T08:13:33.533Z,1012.90
2022-08-01T08:14:33.523Z,1012.94
2022-08-01T08:15:33.687Z,1012.94
2022-08-01T08:16:33.534Z,1012.92
2022-08-01T08:17:36.185Z,1012.96
2022-08-01T08:18:33.521Z,1012.94
2022-08-01T08:19:38.161Z,1012.95
2022-08-01T08:20:33.540Z,1012.95
2022-08-01T08:21:33.521Z,1012.95
2022-08-01T08:22:33.520Z,1012.96
2022-08-01T08:23:42.545Z,1012.96
2022-08-01T08:24:33.516Z,1013.00
2022-08-01T08:25:33.516Z,1012.99
2022-08-01T08:26:33.520Z,1012.98
2022-08-01T08:27:33.521Z,1012.97
2022-08-01T08:28:33.514Z,1013.01
2022-08-01T08:29:33.559Z,1013.03
2022-08-01T08:30:33.520Z,1013.02
2022-08-01T08:31:51.889Z,1013.02
2022-08-01T08:32:33.519Z,1013.00
2022-08-01T08:33:33.516Z,1013.04
2022-08-01T08:34:33.509Z,1013.04
2022-08-01T08:35:53.314Z,1013.00
2022-08-01T08:36:33.525Z,1013.03
2022-08-01T08:37:39.048Z,1012.99
2022-08-01T08:38:33.520Z,1013.04
2022-08-01T08:39:41.905Z,1013.03
2022-08-01T08:40:33.508Z,1013.09
2022-08-01T08:41:37.663Z,1013.04
2022-08-01T08:42:33.512Z,1013.04
2022-08-01T08:43:33.510Z,1013.04
2022-08-01T08:44:33.531Z,1013.03
2022-08-01T08:45:59.621Z,1013.06
2022-08-01T08:46:33.507Z,1013.08
2022-08-01T08:47:33.509Z,1013.10
2022-08-01T08:48:33.509Z,1013.07
2022-08-01T08:49:35.814Z,1013.14
2022-08-01T08:50:33.508Z,1013.14
2022-08-01T08:51:33.511Z,1013.14
2022-08-01T08:52:33.498Z,1013.15
2022-08-01T08:53:34.560Z,1013.10
2022-08-01T08:54:33.509Z,1013.12
2022-08-01T08:55:33.507Z,1013.11
2022-08-01T08:56:33.506Z,1013.14
2022-08-01T08:57:33.518Z,1013.13
2022-08-01T08:58:33.497Z,1013.09
2022-08-01T08:59:33.505Z,1013.12
2022-08-01T09:00:33.501Z,1013.15
2022-08-01T09:01:33.511Z,1013.15
2022-08-01T09:02:33.499Z,1013.14
2022-08-01T09:03:33.592Z,1013.17
2022-08-01T09:04:33.500Z,1013.15
2022-08-01T09:05:38.609Z,1013.21
2022-08-01T09:06:33.499Z,1013.19
2022-08-01T09:07:33.498Z,1013.21
2022-08-01T09:08:33.499Z,1013.15
2022-08-01T09:09:33.496Z,1013.16
2022-08-01T09:10:33.492Z,1013.20
2022-08-01T09:11:33.496Z,1013.17
2022-08-01T09:12:33.494Z,1013.27
2022-08-01T09:13:33.494Z,1013.25
2022-08-01T09:14:33.502Z,1013.27
2022-08-01T09:15:33.838Z,1013.26
2022-08-01T09:16:33.486Z,1013.30
2022-08-01T09:17:33.498Z,1013.28
2022-08-01T09:18:33.484Z,1013.30
2022-08-01T09:19:39.974Z,1013.27
2022-08-01T09:20:33.489Z,1013.25
2022-08-01T09:21:33.485Z,1013.29
2022-08-01T09:22:33.485Z,1013.28
2022-08-01T09:23:33.489Z,1013.23
2022-08-01T09:24:33.500Z,1013.26
2022-08-01T09:25:45.966Z,1013.30
2022-08-01T09:26:34.012Z,1013.28
2022-08-01T09:27:33.486Z,1013.29
2022-08-01T09:28:33.487Z,1013.33
2022-08-01T09:29:38.209Z,1013.28
2022-08-01T09:30:33.491Z,1013.31
2022-08-01T09:31:38.213Z,1013.32
2022-08-01T09:32:36.433Z,1013.33
2022-08-01T09:33:35.001Z,1013.29
2022-08-01T09:34:33.477Z,1013.29
2022-08-01T09:35:36.320Z,1013.31
2022-08-01T09:36:33.481Z,1013.27
2022-08-01T09:37:37.275Z,1013.32
2022-08-01T09:38:33.486Z,1013.33
2022-08-01T09:39:33.484Z,1013.33
2022-08-01T09:40:33.482Z,1013.33
2022-08-01T09:41:37.881Z,1013.38
2022-08-01T09:42:33.484Z,1013.37
2022-08-01T09:43:33.477Z,1013.37
2022-08-01T09:44:42.205Z,1013.38
2022-08-01T09:45:41.011Z,1013.36
2022-08-01T09:46:33.470Z,1013.34
2022-08-01T09:47:33.472Z,1013.38
2022-08-01T09:48:33.480Z,1013.35
2022-08-01T09:49:51.865Z,1013.36
2022-08-01T09:50:33.484Z,1013.33
2022-08-01T09:51:59.411Z,1013.31
2022-08-01T09:52:33.474Z,1013.37
2022-08-01T09:53:33.467Z,1013.29
2022-08-01T09:54:33.477Z,1013.33
2022-08-01T09:55:33.473Z,1013.28
2022-08-01T09:56:33.479Z,1013.31
2022-08-01T09:57:33.475Z,1013.29
2022-08-01T09:58:33.473Z,1013.28
2022-08-01T09:59:56.820Z,1013.31
2022-08-01T10:00:45.373Z,1013.31
2022-08-01T10:01:37.091Z,1013.30
2022-08-01T10:03:19.479Z,1013.35
2022-08-01T10:04:19.403Z,1013.34
2022-08-01T10:05:37.051Z,1013.32
2022-08-01T10:06:19.407Z,1013.31
2022-08-01T10:07:22.029Z,1013.27
2022-08-01T10:08:19.399Z,1013.29
2022-08-01T10:09:19.395Z,1013.25
2022-08-01T10:10:19.398Z,1013.27
2022-08-01T10:11:19.402Z,1013.28
2022-08-01T10:12:19.402Z,1013.26
2022-08-01T10:13:19.403Z,1013.24
2022-08-01T10:14:19.403Z,1013.20
2022-08-01T10:15:19.399Z,1013.21
2022-08-01T10:16:19.398Z,1013.20
2022-08-01T10:17:19.717Z,1013.19
2022-08-01T10:18:26.328Z,1013.17
2022-08-01T10:19:19.396Z,1013.18
2022-08-01T10:20:28.869Z,1013.21
2022-08-01T10:21:47.585Z,1013.17
2022-08-01T10:22:19.394Z,1013.18
2022-08-01T10:23:19.391Z,1013.17
2022-08-01T10:24:19.430Z,1013.15
2022-08-01T10:25:41.965Z,1013.13
2022-08-01T10:26:19.395Z,1013.16
2022-08-01T10:27:24.380Z,1013.17
2022-08-01T10:28:23.830Z,1013.22
2022-08-01T10:29:58.995Z,1013.20
2022-08-01T10:30:23.057Z,1013.22
2022-08-01T10:31:19.389Z,1013.16
2022-08-01T10:32:19.419Z,1013.16
2022-08-01T10:33:19.936Z,1013.11
2022-08-01T10:34:19.406Z,1013.13
2022-08-01T10:35:19.720Z,1013.15
2022-08-01T10:36:19.392Z,1013.15
2022-08-01T10:37:19.391Z,1013.19
2022-08-01T10:38:19.398Z,1013.19
2022-08-01T10:39:20.106Z,1013.13
2022-08-01T10:40:29.810Z,1013.13
2022-08-01T10:41:19.397Z,1013.19
2022-08-01T10:42:19.394Z,1013.16
2022-08-01T10:43:21.525Z,1013.12
2022-08-01T10:44:19.390Z,1013.15
2022-08-01T10:45:19.389Z,1013.08
2022-08-01T10:46:19.393Z,1013.11
2022-08-01T10:47:22.943Z,1013.19
2022-08-01T10:48:20.826Z,1013.16
2022-08-01T10:49:19.483Z,1013.19
2022-08-01T10:50:21.823Z,1013.14
2022-08-01T10:51:19.398Z,1013.09
2022-08-01T10:52:19.588Z,1013.08
2022-08-01T10:53:23.121Z,1013.12
2022-08-01T10:54:19.400Z,1013.08
2022-08-01T10:55:19.408Z,1013.06
2022-08-01T10:56:19.385Z,1013.08
2022-08-01T10:57:19.391Z,1013.12
2022-08-01T10:58:19.389Z,1013.11
2022-08-01T10:59:49.186Z,1013.11
2022-08-01T11:00:19.392Z,1013.11
2022-08-01T11:01:19.610Z,1013.09
2022-08-01T11:02:19.396Z,1013.08
2022-08-01T11:03:30.974Z,1013.10
2022-08-01T11:04:19.393Z,1013.10
2022-08-01T11:05:19.391Z,1013.04
2022-08-01T11:06:19.402Z,1013.05
2022-08-01T11:07:19.402Z,1013.08
2022-08-01T11:08:19.390Z,1013.04
2022-08-01T11:09:19.407Z,1013.06
2022-08-01T11:10:19.387Z,1012.99
2022-08-01T11:11:19.389Z,1012.93
2022-08-01T11:12:24.422Z,1012.97
2022-08-01T11:13:19.391Z,1013.00
2022-08-01T11:14:26.173Z,1012.96
2022-08-01T11:15:29.036Z,1013.00
2022-08-01T11:16:23.950Z,1012.95
2022-08-01T11:17:19.391Z,1012.95
2022-08-01T11:18:19.397Z,1013.00
2022-08-01T11:19:19.393Z,1013.04
2022-08-01T11:20:19.395Z,1012.97
2022-08-01T11:21:57.044Z,1012.92
2022-08-01T11:22:22.826Z,1012.91
2022-08-01T11:23:19.392Z,1012.89
2022-08-01T11:24:19.391Z,1012.93
2022-08-01T11:25:19.391Z,1012.93
2022-08-01T11:26:29.276Z,1012.93
2022-08-01T11:27:20.446Z,1012.92
2022-08-01T11:28:28.900Z,1012.98
2022-08-01T11:29:22.108Z,1012.96
2022-08-01T11:30:20.061Z,1012.96
2022-08-01T11:31:19.390Z,1012.91
2022-08-01T11:32:19.396Z,1012.90
2022-08-01T11:33:19.380Z,1012.90
2022-08-01T11:34:19.740Z,1012.87
2022-08-01T11:35:19.389Z,1012.89
2022-08-01T11:36:31.957Z,1012.90
2022-08-01T11:37:19.389Z,1012.85
2022-08-01T11:38:19.381Z,1012.82
2022-08-01T11:39:19.385Z,1012.78
2022-08-01T11:40:19.391Z,1012.75
2022-08-01T11:41:19.384Z,1012.74
2022-08-01T11:42:19.385Z,1012.78
2022-08-01T11:43:19.383Z,1012.75
2022-08-01T11:44:20.876Z,1012.75
2022-08-01T11:45:19.390Z,1012.77
2022-08-01T11:46:19.390Z,1012.76
2022-08-01T11:47:21.279Z,1012.75
2022-08-01T11:48:19.382Z,1012.81
2022-08-01T11:49:19.465Z,1012.79
2022-08-01T11:50:19.389Z,1012.84
2022-08-01T11:51:25.298Z,1012.84
2022-08-01T11:52:19.390Z,1012.86
2022-08-01T11:53:19.383Z,1012.86
2022-08-01T11:54:34.726Z,1012.86
2022-08-01T11:55:19.394Z,1012.89
2022-08-01T11:56:19.384Z,1012.83
2022-08-01T11:57:19.417Z,1012.80
2022-08-01T11:58:22.529Z,1012.80
2022-08-01T11:59:19.392Z,1012.81
2022-08-01T12:00:19.392Z,1012.79
2022-08-01T12:01:19.387Z,1012.76
2022-08-01T12:02:19.417Z,1012.77
2022-08-01T12:03:29.465Z,1012.71
2022-08-01T12:04:19.430Z,1012.71
2022-08-01T12:05:19.510Z,1012.73
2022-08-01T12:06:19.394Z,1012.74